createdAt,value
2023-06-12T00:00:52.448Z,4.57
2023-06-12T00:03:21.410Z,4.63
2023-06-12T00:05:49.833Z,4.33
2023-06-12T00:08:18.991Z,4.33
2023-06-12T00:10:48.586Z,4.30
2023-06-12T00:13:16.819Z,4.70
2023-06-12T00:15:44.861Z,4.63
2023-06-12T00:18:14.223Z,4.37
2023-06-12T00:20:42.506Z,4.30
2023-06-12T00:23:12.081Z,4.10
2023-06-12T00:25:40.780Z,4.60
2023-06-12T00:28:08.810Z,4.67
2023-06-12T00:30:36.902Z,4.57
2023-06-12T00:33:05.054Z,4.30
2023-06-12T00:35:34.382Z,4.27
2023-06-12T00:38:03.656Z,4.03
2023-06-12T00:40:31.541Z,4.67
2023-06-12T00:42:59.467Z,4.77
2023-06-12T00:45:27.463Z,4.67
2023-06-12T00:47:58.995Z,4.60
2023-06-12T00:50:28.628Z,4.40
2023-06-12T00:52:59.567Z,4.50
2023-06-12T00:55:28.499Z,4.43
2023-06-12T00:57:56.458Z,4.50
2023-06-12T01:00:25.991Z,4.60
2023-06-12T01:02:57.018Z,4.73
2023-06-12T01:05:34.202Z,4.40
2023-06-12T01:08:20.516Z,4.17
2023-06-12T01:10:54.498Z,4.13
2023-06-12T01:13:23.337Z,4.43
2023-06-12T01:15:51.771Z,4.17
2023-06-12T01:18:22.180Z,4.60
2023-06-12T01:20:52.131Z,4.43
2023-06-12T01:23:39.064Z,4.50
2023-06-12T01:26:28.195Z,4.40
2023-06-12T01:29:34.370Z,4.50
2023-06-12T01:32:06.980Z,4.60
2023-06-12T01:34:39.462Z,4.37
2023-06-12T01:37:16.171Z,4.60
2023-06-12T01:39:51.009Z,4.70
2023-06-12T01:42:19.428Z,4.63
2023-06-12T01:44:47.282Z,4.57
2023-06-12T01:47:16.505Z,4.60
2023-06-12T01:49:44.483Z,4.57
2023-06-12T01:52:12.645Z,4.80
2023-06-12T01:54:41.600Z,4.73
2023-06-12T01:57:13.147Z,4.80
2023-06-12T01:59:44.310Z,5.07
2023-06-12T02:02:12.437Z,4.50
2023-06-12T02:04:41.762Z,4.50
2023-06-12T02:07:10.088Z,4.83
2023-06-12T02:09:37.989Z,4.67
2023-06-12T02:12:07.586Z,4.37
2023-06-12T02:14:36.724Z,4.67
2023-06-12T02:17:05.217Z,4.47
2023-06-12T02:19:34.144Z,4.93
2023-06-12T02:22:03.515Z,5.00
2023-06-12T02:24:34.210Z,4.70
2023-06-12T02:27:05.369Z,4.87
2023-06-12T02:29:33.636Z,4.70
2023-06-12T02:32:06.713Z,4.83
2023-06-12T02:34:35.874Z,4.77
2023-06-12T02:37:05.695Z,4.57
2023-06-12T02:39:33.798Z,4.67
2023-06-12T02:42:04.866Z,4.87
2023-06-12T02:44:32.812Z,4.43
2023-06-12T02:47:02.537Z,5.13
2023-06-12T02:49:36.660Z,5.07
2023-06-12T02:52:08.191Z,5.00
2023-06-12T02:54:36.165Z,4.80
2023-06-12T02:57:05.508Z,4.70
2023-06-12T02:59:33.548Z,5.17
2023-06-12T03:02:09.725Z,4.80
2023-06-12T03:04:42.184Z,5.33
2023-06-12T03:07:13.892Z,5.77
2023-06-12T03:09:43.806Z,5.60
2023-06-12T03:12:12.180Z,5.57
2023-06-12T03:14:40.751Z,5.17
2023-06-12T03:17:09.091Z,5.03
2023-06-12T03:19:37.020Z,5.30
2023-06-12T03:22:05.174Z,5.10
2023-06-12T03:24:34.620Z,5.57
2023-06-12T03:27:02.530Z,4.77
2023-06-12T03:29:32.504Z,4.93
2023-06-12T03:32:00.585Z,4.80
2023-06-12T03:34:37.513Z,5.10
2023-06-12T03:37:06.646Z,5.00
2023-06-12T03:39:36.845Z,5.57
2023-06-12T03:42:05.999Z,5.10
2023-06-12T03:44:41.205Z,5.17
2023-06-12T03:47:09.263Z,5.53
2023-06-12T03:49:37.231Z,5.00
2023-06-12T03:52:08.651Z,5.37
2023-06-12T03:54:39.223Z,8.93
2023-06-12T03:57:08.152Z,7.77
2023-06-12T03:59:36.379Z,5.50
2023-06-12T04:02:05.231Z,5.70
2023-06-12T04:04:33.642Z,12.73
2023-06-12T04:07:01.809Z,6.03
2023-06-12T04:09:30.130Z,5.33
2023-06-12T04:11:59.471Z,5.37
2023-06-12T04:14:27.541Z,4.77
2023-06-12T04:16:55.545Z,5.70
2023-06-12T04:19:23.529Z,5.07
2023-06-12T04:21:52.469Z,6.03
2023-06-12T04:24:20.697Z,5.47
2023-06-12T04:26:49.814Z,5.90
2023-06-12T04:29:19.469Z,5.40
2023-06-12T04:31:47.609Z,5.50
2023-06-12T04:34:16.955Z,5.80
2023-06-12T04:36:46.576Z,5.13
2023-06-12T04:39:15.394Z,5.97
2023-06-12T04:41:44.254Z,5.57
2023-06-12T04:44:13.582Z,5.53
2023-06-12T04:46:44.324Z,6.13
2023-06-12T04:49:12.190Z,5.50
2023-06-12T04:51:40.725Z,5.83
2023-06-12T04:54:10.759Z,6.17
2023-06-12T04:56:41.575Z,6.00
2023-06-12T04:59:11.736Z,5.67
2023-06-12T05:01:40.425Z,5.80
2023-06-12T05:04:11.221Z,6.10
2023-06-12T05:06:41.454Z,6.33
2023-06-12T05:09:09.397Z,5.80
2023-06-12T05:11:37.973Z,5.90
2023-06-12T05:14:07.574Z,5.97
2023-06-12T05:16:35.759Z,5.40
2023-06-12T05:19:03.888Z,5.77
2023-06-12T05:21:34.274Z,5.60
2023-06-12T05:24:02.849Z,5.70
2023-06-12T05:26:31.237Z,5.43
2023-06-12T05:28:59.330Z,5.40
2023-06-12T05:31:30.116Z,5.17
2023-06-12T05:33:58.377Z,5.53
2023-06-12T05:36:26.972Z,5.50
2023-06-12T05:38:56.229Z,6.30
2023-06-12T05:41:24.570Z,5.40
2023-06-12T05:43:52.427Z,5.60
2023-06-12T05:46:22.055Z,5.17
2023-06-12T05:48:50.916Z,5.33
2023-06-12T05:51:19.503Z,5.37
2023-06-12T05:53:50.054Z,4.90
2023-06-12T05:56:23.250Z,4.90
2023-06-12T05:58:51.245Z,5.60
2023-06-12T06:01:23.167Z,5.43
2023-06-12T06:03:57.081Z,5.33
2023-06-12T06:06:28.822Z,5.33
2023-06-12T06:08:57.354Z,5.57
2023-06-12T06:11:29.417Z,5.40
2023-06-12T06:14:00.803Z,6.40
2023-06-12T06:16:39.948Z,4.97
2023-06-12T06:19:17.215Z,5.67
2023-06-12T06:21:45.896Z,5.57
2023-06-12T06:24:14.866Z,4.87
2023-06-12T06:26:44.361Z,5.57
2023-06-12T06:29:14.769Z,5.20
2023-06-12T06:31:45.320Z,5.73
2023-06-12T06:34:15.274Z,6.37
2023-06-12T06:36:45.030Z,5.40
2023-06-12T06:39:13.346Z,5.30
2023-06-12T06:41:41.936Z,5.30
2023-06-12T06:44:12.031Z,5.50
2023-06-12T06:46:44.806Z,5.30
2023-06-12T06:49:13.712Z,5.60
2023-06-12T06:51:42.894Z,5.03
2023-06-12T06:54:10.887Z,5.23
2023-06-12T06:56:39.989Z,5.27
2023-06-12T06:59:08.573Z,5.40
2023-06-12T07:01:40.707Z,5.10
2023-06-12T07:04:10.649Z,4.53
2023-06-12T07:06:38.647Z,5.67
2023-06-12T07:09:09.191Z,5.10
2023-06-12T07:11:37.585Z,5.40
2023-06-12T07:14:06.292Z,5.10
2023-06-12T07:16:35.519Z,5.33
2023-06-12T07:19:05.947Z,5.70
2023-06-12T07:21:34.204Z,5.40
2023-06-12T07:24:03.232Z,5.30
2023-06-12T07:26:31.677Z,5.10
2023-06-12T07:29:07.619Z,5.10
2023-06-12T07:31:35.573Z,5.20
2023-06-12T07:34:07.845Z,5.23
2023-06-12T07:36:38.241Z,5.40
2023-06-12T07:39:07.443Z,4.80
2023-06-12T07:41:40.157Z,5.07
2023-06-12T07:44:08.156Z,4.90
2023-06-12T07:46:36.391Z,5.10
2023-06-12T07:49:05.881Z,5.20
2023-06-12T07:51:34.633Z,5.10
2023-06-12T07:54:02.879Z,5.13
2023-06-12T07:56:34.093Z,5.43
2023-06-12T07:59:08.142Z,5.30
2023-06-12T08:01:37.528Z,4.63
2023-06-12T08:04:11.393Z,5.33
2023-06-12T08:06:42.032Z,4.80
2023-06-12T08:09:11.299Z,5.00
2023-06-12T08:11:40.287Z,5.00
2023-06-12T08:14:08.605Z,4.50
2023-06-12T08:16:38.130Z,5.27
2023-06-12T08:19:08.642Z,4.63
2023-06-12T08:21:38.416Z,4.80
2023-06-12T08:24:08.914Z,5.10
2023-06-12T08:26:37.274Z,4.43
2023-06-12T08:29:06.257Z,4.80
2023-06-12T08:31:38.165Z,4.80
2023-06-12T08:34:08.332Z,4.70
2023-06-12T08:36:37.983Z,4.37
2023-06-12T08:39:08.083Z,4.77
2023-06-12T08:41:43.259Z,4.33
2023-06-12T08:44:12.554Z,4.70
2023-06-12T08:46:44.818Z,4.10
2023-06-12T08:49:17.322Z,4.10
2023-06-12T08:51:46.145Z,4.53
2023-06-12T08:54:16.900Z,4.33
2023-06-12T08:56:46.504Z,4.67
2023-06-12T08:59:15.993Z,4.80
2023-06-12T09:01:53.179Z,4.30
2023-06-12T09:04:39.069Z,4.10
2023-06-12T09:07:07.092Z,3.90
2023-06-12T09:09:40.031Z,4.67
2023-06-12T09:12:13.997Z,4.60
2023-06-12T09:14:45.774Z,4.87
2023-06-12T09:17:15.292Z,4.80
2023-06-12T09:19:49.335Z,4.37
2023-06-12T09:22:17.829Z,4.50
2023-06-12T09:24:47.078Z,4.70
2023-06-12T09:27:15.115Z,5.00
2023-06-12T09:29:43.485Z,5.03
2023-06-12T09:32:14.009Z,4.83
2023-06-12T09:34:49.733Z,4.73
2023-06-12T09:37:18.526Z,4.87
2023-06-12T09:39:46.381Z,5.17
2023-06-12T09:42:18.216Z,4.67
2023-06-12T09:44:46.358Z,4.87
2023-06-12T09:47:14.710Z,5.07
2023-06-12T09:49:42.563Z,5.20
2023-06-12T09:52:13.282Z,4.77
2023-06-12T09:54:44.253Z,4.97
2023-06-12T09:57:15.774Z,5.30
2023-06-12T09:59:46.201Z,5.17
2023-06-12T10:02:16.698Z,4.70
2023-06-12T10:04:50.176Z,5.50
2023-06-12T10:07:26.017Z,4.90
2023-06-12T10:09:54.570Z,4.60
2023-06-12T10:12:24.206Z,5.50
2023-06-12T10:14:52.908Z,4.57
2023-06-12T10:17:23.390Z,4.60
2023-06-12T10:19:55.415Z,4.73
2023-06-12T10:22:25.499Z,4.53
2023-06-12T10:24:53.842Z,5.00
2023-06-12T10:27:21.969Z,4.70
2023-06-12T10:29:59.394Z,4.80
2023-06-12T10:32:33.261Z,5.13
2023-06-12T10:35:02.613Z,5.17
2023-06-12T10:37:33.851Z,4.87
2023-06-12T10:40:14.041Z,4.73
2023-06-12T10:42:45.495Z,4.60
2023-06-12T10:45:24.355Z,4.67
2023-06-12T10:48:19.565Z,4.40
2023-06-12T10:50:51.315Z,4.60
2023-06-12T10:53:25.213Z,4.83
2023-06-12T10:55:59.901Z,4.57
2023-06-12T10:58:29.853Z,5.40
2023-06-12T11:00:59.067Z,4.77
2023-06-12T11:03:30.797Z,4.70
2023-06-12T11:06:01.719Z,4.53
2023-06-12T11:08:34.089Z,4.83
2023-06-12T11:11:07.933Z,4.63
2023-06-12T11:13:36.995Z,4.57
2023-06-12T11:16:07.222Z,4.83
2023-06-12T11:18:35.185Z,4.70
2023-06-12T11:21:04.261Z,5.10
2023-06-12T11:23:35.416Z,4.83
2023-06-12T11:26:08.633Z,5.30
2023-06-12T11:28:37.262Z,4.80
2023-06-12T11:31:11.865Z,4.77
2023-06-12T11:33:41.888Z,4.93
2023-06-12T11:36:12.405Z,4.30
2023-06-12T11:41:14.382Z,5.03
2023-06-12T11:43:45.832Z,4.73
2023-06-12T11:46:15.772Z,4.30
2023-06-12T11:51:16.850Z,5.17
2023-06-12T11:53:46.245Z,4.63
2023-06-12T11:58:47.197Z,4.90
2023-06-12T12:01:23.720Z,4.80
2023-06-12T12:03:56.578Z,4.53
2023-06-12T12:06:28.614Z,4.43
2023-06-12T12:08:58.588Z,4.80
2023-06-12T12:11:30.303Z,4.97
2023-06-12T12:14:01.328Z,4.83
2023-06-12T12:16:31.142Z,4.93
2023-06-12T12:18:59.701Z,5.23
2023-06-12T12:21:28.591Z,5.03
2023-06-12T12:23:58.487Z,5.17
2023-06-12T12:26:27.238Z,5.00
2023-06-12T12:28:55.449Z,4.90
2023-06-12T12:31:23.994Z,4.70
2023-06-12T12:33:52.624Z,4.50
2023-06-12T12:36:20.565Z,4.63
2023-06-12T12:38:48.949Z,4.90
2023-06-12T12:41:18.518Z,4.83
2023-06-12T12:43:48.823Z,4.57
2023-06-12T12:46:18.294Z,5.43
2023-06-12T12:48:47.031Z,4.80
2023-06-12T12:51:15.819Z,4.87
2023-06-12T12:53:44.551Z,4.87
2023-06-12T12:56:14.206Z,4.17
2023-06-12T12:58:43.885Z,4.87
2023-06-12T13:01:13.238Z,5.20
2023-06-12T13:03:42.092Z,5.07
2023-06-12T13:06:12.225Z,4.83
2023-06-12T13:08:40.710Z,4.77
2023-06-12T13:11:09.932Z,4.50
2023-06-12T13:13:39.678Z,4.73
2023-06-12T13:16:09.592Z,4.27
2023-06-12T13:18:38.092Z,4.40
2023-06-12T13:21:07.844Z,4.90
2023-06-12T13:23:36.090Z,4.60
2023-06-12T13:26:04.291Z,3.83
2023-06-12T13:28:34.517Z,4.20
2023-06-12T13:31:02.597Z,4.37
2023-06-12T13:33:31.864Z,4.77
2023-06-12T13:36:00.633Z,4.47
2023-06-12T13:38:29.670Z,4.70
2023-06-12T13:40:57.695Z,4.70
2023-06-12T13:43:26.517Z,4.40
2023-06-12T13:45:56.577Z,4.70
2023-06-12T13:48:24.531Z,4.87
2023-06-12T13:50:54.103Z,4.57
2023-06-12T13:53:23.288Z,4.27
2023-06-12T13:55:51.938Z,4.50
2023-06-12T13:58:21.117Z,4.50
2023-06-12T14:00:49.346Z,5.03
2023-06-12T14:03:17.244Z,4.50
2023-06-12T14:05:45.491Z,4.40
2023-06-12T14:08:14.801Z,4.40
2023-06-12T14:10:44.918Z,5.10
2023-06-12T14:13:12.968Z,4.57
2023-06-12T14:15:42.101Z,4.80
2023-06-12T14:18:11.371Z,4.67
2023-06-12T14:20:39.755Z,5.03
2023-06-12T14:23:08.134Z,4.40
2023-06-12T14:25:39.066Z,5.30
2023-06-12T14:28:08.182Z,4.57
2023-06-12T14:30:37.158Z,5.00
2023-06-12T14:33:06.033Z,4.33
2023-06-12T14:35:34.030Z,4.87
2023-06-12T14:38:02.871Z,4.60
2023-06-12T14:40:31.325Z,4.63
2023-06-12T14:43:00.841Z,4.37
2023-06-12T14:45:28.743Z,4.03
2023-06-12T14:47:57.307Z,4.80
2023-06-12T14:50:25.290Z,4.17
2023-06-12T14:52:54.567Z,4.70
2023-06-12T14:55:22.651Z,4.97
2023-06-12T14:57:52.184Z,4.90
2023-06-12T15:00:22.480Z,5.20
2023-06-12T15:02:51.479Z,4.47
2023-06-12T15:05:20.405Z,4.97
2023-06-12T15:07:48.274Z,4.67
2023-06-12T15:10:17.115Z,4.60
2023-06-12T15:12:55.537Z,4.70
2023-06-12T15:15:33.896Z,5.00
2023-06-12T15:18:01.971Z,5.07
2023-06-12T15:20:30.108Z,4.83
2023-06-12T15:22:58.015Z,4.70
2023-06-12T15:25:25.905Z,4.60
2023-06-12T15:27:54.133Z,4.60
2023-06-12T15:30:22.233Z,4.70
2023-06-12T15:32:51.966Z,4.60
2023-06-12T15:35:20.646Z,4.90
2023-06-12T15:37:48.806Z,4.63
2023-06-12T15:40:18.214Z,4.83
2023-06-12T15:42:48.991Z,4.43
2023-06-12T15:45:17.801Z,4.10
2023-06-12T15:47:45.790Z,4.40
2023-06-12T15:50:15.141Z,4.40
2023-06-12T15:52:43.011Z,4.57
2023-06-12T15:55:11.457Z,4.50
2023-06-12T15:57:48.812Z,4.63
2023-06-12T16:00:21.297Z,4.37
2023-06-12T16:02:49.583Z,4.43
2023-06-12T16:05:19.448Z,4.17
2023-06-12T16:07:48.478Z,3.90
2023-06-12T16:10:16.611Z,4.30
2023-06-12T16:12:45.975Z,4.20
2023-06-12T16:15:15.285Z,4.30
2023-06-12T16:17:43.438Z,4.50
2023-06-12T16:20:12.174Z,4.60
2023-06-12T16:22:41.854Z,4.60
2023-06-12T16:25:11.786Z,4.23
2023-06-12T16:27:40.230Z,4.10
2023-06-12T16:30:09.916Z,4.03
2023-06-12T16:32:38.216Z,4.15
2023-06-12T16:35:06.752Z,4.43
2023-06-12T16:37:34.633Z,4.57
2023-06-12T16:40:09.430Z,4.50
2023-06-12T16:42:38.365Z,4.33
2023-06-12T16:45:08.442Z,4.40
2023-06-12T16:47:36.943Z,4.60
2023-06-12T16:50:06.015Z,4.10
2023-06-12T16:52:33.879Z,4.53
2023-06-12T16:55:01.787Z,4.40
2023-06-12T16:57:31.437Z,4.10
2023-06-12T16:59:59.828Z,4.47
2023-06-12T17:02:27.945Z,4.10
2023-06-12T17:04:57.062Z,4.67
2023-06-12T17:07:26.217Z,4.37
2023-06-12T17:09:55.243Z,4.47
2023-06-12T17:12:23.224Z,4.80
2023-06-12T17:14:52.994Z,5.37
2023-06-12T17:17:21.392Z,4.47
2023-06-12T17:19:49.687Z,4.27
2023-06-12T17:22:18.653Z,5.00
2023-06-12T17:24:46.940Z,4.37
2023-06-12T17:27:15.156Z,4.20
2023-06-12T17:29:43.136Z,4.50
2023-06-12T17:32:12.525Z,5.00
2023-06-12T17:34:41.682Z,4.63
2023-06-12T17:37:09.730Z,4.37
2023-06-12T17:39:37.694Z,4.37
2023-06-12T17:42:06.969Z,4.50
2023-06-12T17:44:41.786Z,4.50
2023-06-12T17:47:11.837Z,4.97
2023-06-12T17:49:42.588Z,4.50
2023-06-12T17:52:10.696Z,4.53
2023-06-12T17:54:39.300Z,4.63
2023-06-12T17:57:07.617Z,4.70
2023-06-12T17:59:37.038Z,4.60
2023-06-12T18:02:05.389Z,4.73
2023-06-12T18:04:34.108Z,4.10
2023-06-12T18:07:04.659Z,4.73
2023-06-12T18:09:32.568Z,4.60
2023-06-12T18:12:00.485Z,4.53
2023-06-12T18:14:28.554Z,4.53
2023-06-12T18:16:56.597Z,4.67
2023-06-12T18:19:24.703Z,4.27
2023-06-12T18:21:52.600Z,3.97
2023-06-12T18:24:22.162Z,4.73
2023-06-12T18:26:50.287Z,4.90
2023-06-12T18:29:19.481Z,4.40
2023-06-12T18:31:48.269Z,4.43
2023-06-12T18:34:16.697Z,4.67
2023-06-12T18:36:44.723Z,4.70
2023-06-12T18:39:12.673Z,4.40
2023-06-12T18:41:41.967Z,4.47
2023-06-12T18:44:13.341Z,4.87
2023-06-12T18:46:41.968Z,3.97
2023-06-12T18:49:10.052Z,4.27
2023-06-12T18:51:38.409Z,4.20
2023-06-12T18:54:06.399Z,3.80
2023-06-12T18:56:39.278Z,4.47
2023-06-12T18:59:08.646Z,4.33
2023-06-12T19:01:36.972Z,4.67
2023-06-12T19:04:06.157Z,4.00
2023-06-12T19:06:35.040Z,4.30
2023-06-12T19:09:03.300Z,4.30
2023-06-12T19:11:31.320Z,4.83
2023-06-12T19:13:59.741Z,4.90
2023-06-12T19:16:29.305Z,4.87
2023-06-12T19:18:57.430Z,5.07
2023-06-12T19:21:25.443Z,4.83
2023-06-12T19:23:54.145Z,4.50
2023-06-12T19:26:22.642Z,4.53
2023-06-12T19:28:52.758Z,4.80
2023-06-12T19:31:21.049Z,4.27
2023-06-12T19:33:51.575Z,4.27
2023-06-12T19:36:19.558Z,4.57
2023-06-12T19:38:47.515Z,4.37
2023-06-12T19:41:15.776Z,4.17
2023-06-12T19:43:43.753Z,3.90
2023-06-12T19:46:13.151Z,3.70
2023-06-12T19:48:41.213Z,4.50
2023-06-12T19:51:10.537Z,3.80
2023-06-12T19:53:38.489Z,3.97
2023-06-12T19:56:07.090Z,4.00
2023-06-12T19:58:36.365Z,4.00
2023-06-12T20:01:04.416Z,4.20
2023-06-12T20:03:32.580Z,4.27
2023-06-12T20:06:00.975Z,4.00
2023-06-12T20:08:30.486Z,3.93
2023-06-12T20:10:58.343Z,4.20
2023-06-12T20:13:26.428Z,3.97
2023-06-12T20:15:54.342Z,3.73
2023-06-12T20:18:22.258Z,4.03
2023-06-12T20:20:51.745Z,4.03
2023-06-12T20:23:20.327Z,4.00
2023-06-12T20:25:50.759Z,4.00
2023-06-12T20:28:21.059Z,3.73
2023-06-12T20:30:49.079Z,3.53
2023-06-12T20:33:17.951Z,3.80
2023-06-12T20:35:45.914Z,4.30
2023-06-12T20:38:13.828Z,4.03
2023-06-12T20:40:41.945Z,3.90
2023-06-12T20:43:14.487Z,3.60
2023-06-12T20:45:42.695Z,3.73
2023-06-12T20:48:10.653Z,4.23
2023-06-12T20:50:38.668Z,3.37
2023-06-12T20:53:06.989Z,4.50
2023-06-12T20:55:34.869Z,3.80
2023-06-12T20:58:02.767Z,3.97
2023-06-12T21:00:32.499Z,4.00
2023-06-12T21:03:00.746Z,3.83
2023-06-12T21:05:28.663Z,4.20
2023-06-12T21:07:56.524Z,4.10
2023-06-12T21:10:24.414Z,3.90
2023-06-12T21:12:52.387Z,3.77
2023-06-12T21:15:20.719Z,4.20
2023-06-12T21:17:51.867Z,4.17
2023-06-12T21:20:19.810Z,4.00
2023-06-12T21:22:48.854Z,3.63
2023-06-12T21:25:17.363Z,3.70
2023-06-12T21:27:45.604Z,3.80
2023-06-12T21:30:13.887Z,3.83
2023-06-12T21:32:53.466Z,3.77
2023-06-12T21:35:21.578Z,3.60
2023-06-12T21:37:49.466Z,3.43
2023-06-12T21:40:17.440Z,3.47
2023-06-12T21:42:45.343Z,3.83
2023-06-12T21:45:13.525Z,4.10
2023-06-12T21:47:42.015Z,4.10
2023-06-12T21:50:11.969Z,3.90
2023-06-12T21:52:39.886Z,3.43
2023-06-12T21:55:08.724Z,4.40
2023-06-12T21:57:36.565Z,3.63
2023-06-12T22:00:06.250Z,4.17
2023-06-12T22:02:41.247Z,3.80
2023-06-12T22:05:11.596Z,4.07
2023-06-12T22:07:39.658Z,4.30
2023-06-12T22:10:08.121Z,3.57
2023-06-12T22:12:36.381Z,4.20
2023-06-12T22:15:04.924Z,3.67
2023-06-12T22:17:32.846Z,4.20
2023-06-12T22:20:02.038Z,4.23
2023-06-12T22:22:31.273Z,4.00
2023-06-12T22:24:59.167Z,3.67
2023-06-12T22:27:27.159Z,3.43
2023-06-12T22:29:55.025Z,4.13
2023-06-12T22:32:22.956Z,3.87
2023-06-12T22:34:51.524Z,4.00
2023-06-12T22:37:19.409Z,4.10
2023-06-12T22:39:48.636Z,3.30
2023-06-12T22:42:16.733Z,3.57
2023-06-12T22:44:45.218Z,3.77
2023-06-12T22:47:13.974Z,4.40
2023-06-12T22:49:41.836Z,3.83
2023-06-12T22:52:11.562Z,3.87
2023-06-12T22:54:39.643Z,3.47
2023-06-12T22:57:09.392Z,4.00
2023-06-12T22:59:37.999Z,4.33
2023-06-12T23:02:06.470Z,3.93
2023-06-12T23:04:36.460Z,4.03
2023-06-12T23:07:07.969Z,4.13
2023-06-12T23:09:36.431Z,4.23
2023-06-12T23:12:04.721Z,3.73
2023-06-12T23:14:33.895Z,3.80
2023-06-12T23:17:02.889Z,4.13
2023-06-12T23:19:32.433Z,3.73
2023-06-12T23:22:01.977Z,4.40
2023-06-12T23:24:29.912Z,4.10
2023-06-12T23:26:58.658Z,3.83
2023-06-12T23:29:26.869Z,3.93
2023-06-12T23:31:56.696Z,3.80
2023-06-12T23:34:24.633Z,3.80
2023-06-12T23:36:52.587Z,4.10
2023-06-12T23:39:20.412Z,4.43
2023-06-12T23:41:48.879Z,3.63
2023-06-12T23:44:17.123Z,3.73
2023-06-12T23:46:45.674Z,3.60
2023-06-12T23:49:14.953Z,3.90
2023-06-12T23:51:42.879Z,3.87
2023-06-12T23:54:10.883Z,3.40
2023-06-12T23:56:39.212Z,3.47
2023-06-12T23:59:09.093Z,3.93
